createdAt,value
2019-04-25T00:00:11.729Z,31.77
2019-04-25T00:02:42.271Z,38.90
2019-04-25T00:05:11.820Z,36.50
2019-04-25T00:07:38.803Z,34.03
2019-04-25T00:10:05.890Z,34.30
2019-04-25T00:12:32.576Z,32.10
2019-04-25T00:15:01.271Z,31.60
2019-04-25T00:17:31.521Z,34.00
2019-04-25T00:19:58.228Z,32.00
2019-04-25T00:22:42.580Z,38.07
2019-04-25T00:25:29.226Z,36.97
2019-04-25T00:27:55.934Z,29.50
2019-04-25T00:30:24.471Z,35.30
2019-04-25T00:32:51.162Z,27.47
2019-04-25T00:35:17.826Z,46.70
2019-04-25T00:37:45.481Z,34.33
2019-04-25T00:40:13.650Z,34.77
2019-04-25T00:42:42.791Z,31.10
2019-04-25T00:45:09.412Z,38.20
2019-04-25T00:47:36.008Z,36.63
2019-04-25T00:50:02.948Z,35.87
2019-04-25T00:52:31.390Z,38.30
2019-04-25T00:54:58.536Z,40.70
2019-04-25T00:57:26.026Z,34.47
2019-04-25T00:59:59.017Z,49.77
2019-04-25T01:02:31.492Z,53.90
2019-04-25T01:04:58.265Z,52.10
2019-04-25T01:07:24.993Z,43.23
2019-04-25T01:09:53.188Z,37.37
2019-04-25T01:12:21.611Z,36.37
2019-04-25T01:14:48.461Z,43.07
2019-04-25T01:17:15.172Z,41.17
2019-04-25T01:19:41.747Z,44.20
2019-04-25T01:22:08.923Z,37.37
2019-04-25T01:24:35.529Z,43.37
2019-04-25T01:27:03.353Z,38.80
2019-04-25T01:29:33.427Z,34.70
2019-04-25T01:32:00.960Z,40.30
2019-04-25T01:34:54.686Z,35.87
2019-04-25T01:37:45.041Z,44.13
2019-04-25T01:40:30.048Z,41.33
2019-04-25T01:43:13.763Z,39.20
2019-04-25T01:45:40.793Z,42.87
2019-04-25T01:48:07.468Z,36.00
2019-04-25T01:50:35.253Z,35.20
2019-04-25T01:53:03.432Z,35.23
2019-04-25T01:55:30.854Z,42.30
2019-04-25T01:57:57.688Z,39.30
2019-04-25T02:00:33.300Z,40.27
2019-04-25T02:03:00.121Z,43.30
2019-04-25T02:05:26.801Z,40.03
2019-04-25T02:07:54.997Z,39.17
2019-04-25T02:10:23.406Z,42.30
2019-04-25T02:12:55.608Z,42.43
2019-04-25T02:15:26.839Z,42.30
2019-04-25T02:17:54.169Z,41.50
2019-04-25T02:20:23.753Z,45.73
2019-04-25T02:22:52.127Z,38.50
2019-04-25T02:25:19.032Z,39.43
2019-04-25T02:27:46.020Z,42.37
2019-04-25T02:30:15.533Z,36.20
2019-04-25T02:32:44.214Z,47.07
2019-04-25T02:35:11.536Z,42.53
2019-04-25T02:37:38.164Z,42.97
2019-04-25T02:40:07.704Z,41.00
2019-04-25T02:42:34.335Z,44.70
2019-04-25T02:45:16.226Z,38.63
2019-04-25T02:48:14.104Z,41.03
2019-04-25T02:50:48.137Z,43.33
2019-04-25T02:53:31.393Z,37.47
2019-04-25T02:55:58.053Z,45.37
2019-04-25T02:58:24.972Z,42.50
2019-04-25T03:00:59.769Z,43.90
2019-04-25T03:03:20.856Z,41.17
2019-04-25T03:05:47.993Z,39.90
2019-04-25T03:08:14.765Z,38.90
2019-04-25T03:10:43.843Z,43.13
2019-04-25T03:13:12.032Z,47.10
2019-04-25T03:15:39.018Z,40.53
2019-04-25T03:18:10.355Z,39.00
2019-04-25T03:20:45.150Z,37.83
2019-04-25T03:23:35.000Z,41.80
2019-04-25T03:26:01.039Z,41.90
2019-04-25T03:28:28.111Z,34.63
2019-04-25T03:30:57.077Z,35.90
2019-04-25T03:33:25.724Z,35.80
2019-04-25T03:35:53.220Z,28.43
2019-04-25T03:38:20.253Z,28.97
2019-04-25T03:40:46.873Z,27.87
2019-04-25T03:43:14.949Z,26.97
2019-04-25T03:45:43.215Z,27.03
2019-04-25T03:48:10.447Z,33.17
2019-04-25T03:50:37.189Z,36.17
2019-04-25T03:53:05.336Z,29.00
2019-04-25T03:55:35.567Z,36.40
2019-04-25T03:58:01.028Z,29.03
2019-04-25T04:00:27.740Z,26.60
2019-04-25T04:02:55.425Z,28.87
2019-04-25T04:05:23.352Z,28.07
2019-04-25T04:07:50.470Z,22.70
2019-04-25T04:10:17.068Z,31.60
2019-04-25T04:12:44.344Z,36.00
2019-04-25T04:15:12.901Z,29.83
2019-04-25T04:17:45.222Z,33.40
2019-04-25T04:20:37.360Z,33.07
2019-04-25T04:23:13.491Z,30.80
2019-04-25T04:25:40.828Z,31.53
2019-04-25T04:28:07.673Z,27.47
2019-04-25T04:30:34.364Z,31.23
2019-04-25T04:33:01.024Z,27.33
2019-04-25T04:35:27.651Z,27.27
2019-04-25T04:37:54.280Z,34.33
2019-04-25T04:40:21.001Z,33.50
2019-04-25T04:42:47.936Z,24.43
2019-04-25T04:45:15.748Z,20.13
2019-04-25T04:47:43.393Z,17.07
2019-04-25T04:50:10.589Z,14.80
2019-04-25T04:52:37.385Z,18.37
2019-04-25T04:55:08.365Z,21.00
2019-04-25T04:57:36.001Z,14.53
2019-04-25T05:00:04.155Z,14.63
2019-04-25T05:02:50.476Z,14.73
2019-04-25T05:05:35.784Z,14.80
2019-04-25T05:08:06.830Z,14.70
2019-04-25T05:10:33.433Z,16.57
2019-04-25T05:13:00.057Z,17.50
2019-04-25T05:15:26.695Z,20.30
2019-04-25T05:17:54.185Z,23.83
2019-04-25T05:20:21.063Z,12.90
2019-04-25T05:22:47.679Z,15.00
2019-04-25T05:25:16.187Z,11.00
2019-04-25T05:27:59.009Z,10.97
2019-04-25T05:30:17.888Z,14.73
2019-04-25T05:32:44.543Z,16.77
2019-04-25T05:35:11.214Z,15.20
2019-04-25T05:37:37.803Z,15.37
2019-04-25T05:40:05.615Z,12.33
2019-04-25T05:43:03.913Z,10.20
2019-04-25T05:45:31.196Z,10.20
2019-04-25T05:47:57.812Z,14.80
2019-04-25T05:50:25.194Z,12.03
2019-04-25T05:52:54.106Z,11.80
2019-04-25T05:55:21.147Z,15.63
2019-04-25T05:57:50.225Z,15.83
2019-04-25T06:00:17.662Z,14.33
2019-04-25T06:02:46.176Z,10.00
2019-04-25T06:05:13.322Z,9.37
2019-04-25T06:07:39.936Z,8.77
2019-04-25T06:10:26.759Z,6.97
2019-04-25T06:13:28.722Z,8.57
2019-04-25T06:16:00.262Z,10.60
2019-04-25T06:18:38.531Z,11.17
2019-04-25T06:21:06.469Z,13.83
2019-04-25T06:23:48.602Z,5.67
2019-04-25T06:26:22.414Z,5.03
2019-04-25T06:28:52.474Z,5.70
2019-04-25T06:31:13.788Z,3.07
2019-04-25T06:33:40.586Z,9.10
2019-04-25T06:36:07.379Z,14.63
2019-04-25T06:38:33.960Z,5.33
2019-04-25T06:41:00.740Z,3.73
2019-04-25T06:43:27.982Z,5.10
2019-04-25T06:46:33.843Z,3.63
2019-04-25T06:49:07.521Z,3.13
2019-04-25T06:51:50.427Z,2.87
2019-04-25T06:54:17.236Z,3.40
2019-04-25T06:56:44.064Z,4.53
2019-04-25T06:59:10.689Z,7.30
2019-04-25T07:01:37.296Z,2.77
2019-04-25T07:04:04.143Z,6.43
2019-04-25T07:06:31.330Z,16.17
2019-04-25T07:08:58.079Z,1.67
2019-04-25T07:11:25.771Z,2.70
2019-04-25T07:13:53.671Z,3.03
2019-04-25T07:16:20.416Z,4.63
2019-04-25T07:18:47.145Z,4.90
2019-04-25T07:21:14.398Z,4.20
2019-04-25T07:23:41.008Z,3.23
2019-04-25T07:26:15.137Z,1.63
2019-04-25T07:29:03.348Z,4.70
2019-04-25T07:31:44.211Z,7.50
2019-04-25T07:34:16.950Z,2.70
2019-04-25T07:36:45.180Z,2.83
2019-04-25T07:39:13.453Z,2.70
2019-04-25T07:41:40.273Z,5.20
2019-04-25T07:44:06.909Z,2.67
2019-04-25T07:46:37.298Z,6.83
2019-04-25T07:49:03.442Z,3.30
2019-04-25T07:51:30.368Z,4.07
2019-04-25T07:53:57.348Z,4.60
2019-04-25T07:56:24.542Z,1.50
2019-04-25T07:58:52.737Z,4.47
2019-04-25T08:01:19.696Z,2.30
2019-04-25T08:03:46.367Z,5.00
2019-04-25T08:06:13.733Z,5.60
2019-04-25T08:08:40.683Z,3.17
2019-04-25T08:11:08.259Z,1.90
2019-04-25T08:13:42.268Z,5.33
2019-04-25T08:16:14.430Z,11.30
2019-04-25T08:18:49.233Z,4.50
2019-04-25T08:21:15.894Z,1.40
2019-04-25T08:23:43.715Z,1.53
2019-04-25T08:26:10.521Z,4.60
2019-04-25T08:28:50.415Z,1.83
2019-04-25T08:31:05.724Z,2.30
2019-04-25T08:33:34.216Z,2.23
2019-04-25T08:36:06.520Z,3.63
2019-04-25T08:38:31.385Z,4.53
2019-04-25T08:40:58.089Z,9.67
2019-04-25T08:43:25.012Z,4.43
2019-04-25T08:45:51.637Z,5.60
2019-04-25T08:48:18.521Z,4.00
2019-04-25T08:50:54.157Z,8.03
2019-04-25T08:53:24.348Z,1.47
2019-04-25T08:55:57.222Z,3.20
2019-04-25T08:59:06.170Z,3.20
2019-04-25T09:01:45.256Z,6.37
2019-04-25T09:04:20.329Z,6.27
2019-04-25T09:06:47.887Z,2.43
2019-04-25T09:09:14.522Z,5.80
2019-04-25T09:11:41.394Z,3.23
2019-04-25T09:14:08.080Z,3.07
2019-04-25T09:16:36.416Z,8.87
2019-04-25T09:19:04.673Z,2.93
2019-04-25T09:21:33.213Z,4.90
2019-04-25T09:24:00.516Z,4.13
2019-04-25T09:26:27.121Z,1.50
2019-04-25T09:28:53.837Z,4.20
2019-04-25T09:31:20.590Z,6.33
2019-04-25T09:33:48.612Z,6.17
2019-04-25T09:36:15.337Z,3.33
2019-04-25T09:38:41.949Z,1.83
2019-04-25T09:41:08.724Z,6.30
2019-04-25T09:43:35.846Z,6.00
2019-04-25T09:46:09.998Z,3.77
2019-04-25T09:48:45.615Z,4.50
2019-04-25T09:51:33.601Z,1.60
2019-04-25T09:54:10.628Z,3.77
2019-04-25T09:56:41.701Z,1.70
2019-04-25T09:59:13.815Z,2.40
2019-04-25T10:01:43.957Z,1.80
2019-04-25T10:04:11.692Z,5.20
2019-04-25T10:06:38.877Z,2.20
2019-04-25T10:09:07.522Z,2.27
2019-04-25T10:11:34.415Z,3.40
2019-04-25T10:14:13.644Z,5.07
2019-04-25T10:16:40.629Z,5.43
2019-04-25T10:19:07.264Z,2.27
2019-04-25T10:21:34.402Z,7.27
2019-04-25T10:24:01.660Z,2.57
2019-04-25T10:26:29.293Z,2.53
2019-04-25T10:28:55.900Z,6.83
2019-04-25T10:31:23.743Z,2.70
2019-04-25T10:33:50.838Z,1.83
2019-04-25T10:36:17.655Z,3.87
2019-04-25T10:38:46.245Z,3.77
2019-04-25T10:41:14.226Z,2.47
2019-04-25T10:43:41.791Z,5.63
2019-04-25T10:46:08.817Z,11.23
2019-04-25T10:48:35.829Z,2.57
2019-04-25T10:51:04.155Z,1.10
2019-04-25T10:53:31.092Z,5.93
2019-04-25T10:55:57.820Z,1.83
2019-04-25T10:58:24.453Z,6.60
2019-04-25T11:00:52.824Z,1.87
2019-04-25T11:03:55.710Z,5.60
2019-04-25T11:06:26.389Z,2.30
2019-04-25T11:08:55.445Z,1.97
2019-04-25T11:11:22.045Z,6.10
2019-04-25T11:13:49.019Z,11.77
2019-04-25T11:16:15.811Z,8.53
2019-04-25T11:18:44.996Z,14.93
2019-04-25T11:21:11.318Z,7.10
2019-04-25T11:23:38.036Z,4.40
2019-04-25T11:26:04.870Z,4.20
2019-04-25T11:28:31.844Z,2.17
2019-04-25T11:30:58.457Z,7.60
2019-04-25T11:33:25.162Z,6.67
2019-04-25T11:35:53.561Z,5.50
2019-04-25T11:38:31.857Z,2.93
2019-04-25T11:41:04.717Z,7.07
2019-04-25T11:43:31.427Z,4.07
2019-04-25T11:45:58.012Z,6.03
2019-04-25T11:48:24.706Z,2.87
2019-04-25T11:50:52.462Z,1.60
2019-04-25T11:53:20.377Z,2.33
2019-04-25T11:55:48.172Z,4.20
2019-04-25T11:58:15.708Z,5.87
2019-04-25T12:00:45.087Z,5.47
2019-04-25T12:03:12.087Z,2.70
2019-04-25T12:05:38.815Z,2.30
2019-04-25T12:08:06.650Z,5.23
2019-04-25T12:10:34.721Z,3.07
2019-04-25T12:13:01.437Z,3.47
2019-04-25T12:15:28.059Z,4.10
2019-04-25T12:17:55.842Z,2.00
2019-04-25T12:20:22.988Z,3.43
2019-04-25T12:22:51.644Z,1.70
2019-04-25T12:25:18.339Z,1.63
2019-04-25T12:27:48.154Z,4.43
2019-04-25T12:30:14.243Z,1.40
2019-04-25T12:32:41.274Z,3.60
2019-04-25T12:35:08.271Z,5.57
2019-04-25T12:37:34.984Z,3.87
2019-04-25T12:40:04.049Z,1.43
2019-04-25T12:42:30.622Z,3.20
2019-04-25T12:45:04.096Z,1.90
2019-04-25T12:47:31.462Z,3.73
2019-04-25T12:49:58.077Z,1.40
2019-04-25T12:52:24.784Z,1.97
2019-04-25T12:54:51.437Z,2.30
2019-04-25T12:57:18.319Z,1.30
2019-04-25T12:59:45.262Z,2.20
2019-04-25T13:02:13.388Z,3.00
2019-04-25T13:04:40.117Z,2.47
2019-04-25T13:07:07.220Z,1.33
2019-04-25T13:09:34.426Z,7.43
2019-04-25T13:12:01.127Z,2.03
2019-04-25T13:14:28.625Z,1.53
2019-04-25T13:16:55.364Z,4.70
2019-04-25T13:19:24.628Z,1.70
2019-04-25T13:21:50.722Z,3.77
2019-04-25T13:24:17.421Z,2.23
2019-04-25T13:26:57.010Z,2.60
2019-04-25T13:29:43.309Z,1.73
2019-04-25T13:32:37.577Z,2.13
2019-04-25T13:35:10.889Z,9.30
2019-04-25T13:37:37.726Z,3.60
2019-04-25T13:40:06.461Z,1.30
2019-04-25T13:42:33.392Z,3.53
2019-04-25T13:45:00.152Z,6.37
2019-04-25T13:47:29.207Z,0.80
2019-04-25T13:49:55.674Z,3.87
2019-04-25T13:52:23.880Z,2.23
2019-04-25T13:54:50.935Z,1.07
2019-04-25T13:57:17.660Z,3.20
2019-04-25T13:59:45.799Z,4.17
2019-04-25T14:02:14.099Z,1.70
2019-04-25T14:04:41.242Z,2.80
2019-04-25T14:07:08.385Z,1.43
2019-04-25T14:09:35.218Z,2.97
2019-04-25T14:12:01.967Z,4.50
2019-04-25T14:14:28.648Z,5.70
2019-04-25T14:17:15.025Z,3.30
2019-04-25T14:19:57.857Z,5.57
2019-04-25T14:22:25.232Z,3.27
2019-04-25T14:24:51.961Z,1.83
2019-04-25T14:27:18.673Z,1.87
2019-04-25T14:29:45.425Z,4.40
2019-04-25T14:32:14.007Z,2.50
2019-04-25T14:34:40.599Z,5.40
2019-04-25T14:37:07.209Z,3.10
2019-04-25T14:39:33.903Z,4.10
2019-04-25T14:42:00.713Z,7.10
2019-04-25T14:44:28.596Z,8.50
2019-04-25T14:46:55.405Z,4.23
2019-04-25T14:49:22.654Z,6.27
2019-04-25T14:51:49.532Z,3.77
2019-04-25T14:54:23.024Z,4.17
2019-04-25T14:57:02.969Z,8.23
2019-04-25T14:59:29.666Z,3.80
2019-04-25T15:01:56.569Z,6.93
2019-04-25T15:04:24.045Z,5.73
2019-04-25T15:06:50.869Z,2.17
2019-04-25T15:09:17.643Z,2.87
2019-04-25T15:11:44.239Z,8.93
2019-04-25T15:14:10.869Z,7.13
2019-04-25T15:16:37.459Z,2.77
2019-04-25T15:19:04.522Z,3.50
2019-04-25T15:21:31.882Z,1.53
2019-04-25T15:24:00.301Z,4.50
2019-04-25T15:26:27.456Z,5.97
2019-04-25T15:28:54.137Z,3.70
2019-04-25T15:31:20.864Z,13.50
2019-04-25T15:33:47.672Z,2.20
2019-04-25T15:36:19.886Z,1.63
2019-04-25T15:38:51.897Z,2.03
2019-04-25T15:41:43.928Z,3.67
2019-04-25T15:44:25.055Z,4.17
2019-04-25T15:46:52.762Z,4.27
2019-04-25T15:49:19.377Z,4.43
2019-04-25T15:51:46.084Z,3.87
2019-04-25T15:54:12.736Z,2.87
2019-04-25T15:56:39.431Z,4.90
2019-04-25T15:59:06.414Z,7.40
2019-04-25T16:01:33.281Z,6.37
2019-04-25T16:03:59.893Z,3.20
2019-04-25T16:06:26.730Z,5.07
2019-04-25T16:08:54.352Z,4.63
2019-04-25T16:11:21.168Z,16.13
2019-04-25T16:13:47.842Z,4.40
2019-04-25T16:16:14.653Z,3.10
2019-04-25T16:18:41.549Z,10.80
2019-04-25T16:21:08.304Z,4.30
2019-04-25T16:23:35.095Z,2.27
2019-04-25T16:26:02.876Z,3.53
2019-04-25T16:28:29.825Z,4.23
2019-04-25T16:30:56.475Z,3.37
2019-04-25T16:33:23.159Z,1.83
2019-04-25T16:35:49.795Z,5.47
2019-04-25T16:38:18.036Z,4.30
2019-04-25T16:40:44.672Z,6.13
2019-04-25T16:43:14.685Z,3.00
2019-04-25T16:45:41.464Z,2.17
2019-04-25T16:48:08.213Z,3.60
2019-04-25T16:50:34.953Z,4.97
2019-04-25T16:53:01.683Z,5.17
2019-04-25T16:55:29.485Z,3.80
2019-04-25T16:57:57.162Z,5.40
2019-04-25T17:00:38.605Z,3.93
2019-04-25T17:03:05.433Z,8.67
2019-04-25T17:05:32.692Z,2.70
2019-04-25T17:07:59.409Z,10.00
2019-04-25T17:10:26.322Z,5.60
2019-04-25T17:12:53.030Z,14.23
2019-04-25T17:15:28.473Z,12.00
2019-04-25T17:18:02.863Z,7.47
2019-04-25T17:20:33.196Z,7.37
2019-04-25T17:22:59.921Z,3.83
2019-04-25T17:25:26.712Z,3.10
2019-04-25T17:27:53.607Z,8.40
2019-04-25T17:30:20.924Z,4.63
2019-04-25T17:33:12.413Z,2.70
2019-04-25T17:35:53.250Z,4.30
2019-04-25T17:38:25.639Z,3.63
2019-04-25T17:40:52.322Z,6.43
2019-04-25T17:43:19.038Z,9.40
2019-04-25T17:45:45.685Z,7.03
2019-04-25T17:48:12.284Z,4.00
2019-04-25T17:50:39.677Z,5.20
2019-04-25T17:53:06.416Z,8.53
2019-04-25T17:55:33.336Z,5.87
2019-04-25T17:58:00.187Z,6.80
2019-04-25T18:00:37.650Z,5.60
2019-04-25T18:03:06.613Z,10.73
2019-04-25T18:05:34.132Z,5.70
2019-04-25T18:08:01.740Z,8.93
2019-04-25T18:10:28.481Z,5.23
2019-04-25T18:12:55.099Z,7.30
2019-04-25T18:15:29.175Z,6.07
2019-04-25T18:17:55.903Z,11.47
2019-04-25T18:20:24.440Z,5.83
2019-04-25T18:23:11.143Z,10.80
2019-04-25T18:25:56.045Z,9.53
2019-04-25T18:28:29.195Z,8.30
2019-04-25T18:30:55.919Z,8.20
2019-04-25T18:33:29.017Z,7.43
2019-04-25T18:36:03.000Z,7.70
2019-04-25T18:38:44.187Z,6.97
2019-04-25T18:41:16.634Z,6.83
2019-04-25T18:43:47.124Z,11.90
2019-04-25T18:46:23.891Z,13.00
2019-04-25T18:48:50.939Z,7.03
2019-04-25T18:51:17.580Z,16.03
2019-04-25T18:54:04.293Z,13.53
2019-04-25T18:56:34.915Z,9.87
2019-04-25T18:59:20.082Z,15.23
2019-04-25T19:02:05.302Z,11.43
2019-04-25T19:04:49.143Z,5.97
2019-04-25T19:07:22.795Z,7.10
2019-04-25T19:09:48.165Z,7.13
2019-04-25T19:12:15.075Z,7.77
2019-04-25T19:14:43.045Z,8.77
2019-04-25T19:17:10.559Z,7.03
2019-04-25T19:19:37.391Z,5.80
2019-04-25T19:22:04.325Z,14.37
2019-04-25T19:24:31.489Z,10.10
2019-04-25T19:26:58.536Z,9.80
2019-04-25T19:29:25.228Z,8.30
2019-04-25T19:31:53.292Z,7.77
2019-04-25T19:34:20.253Z,18.50
2019-04-25T19:36:46.972Z,19.00
2019-04-25T19:39:13.945Z,10.50
2019-04-25T19:41:47.133Z,11.03
2019-04-25T19:44:23.887Z,14.73
2019-04-25T19:46:51.361Z,15.87
2019-04-25T19:49:18.285Z,11.20
2019-04-25T19:51:45.211Z,4.30
2019-04-25T19:54:11.973Z,7.87
2019-04-25T19:56:39.021Z,5.87
2019-04-25T19:59:09.108Z,5.17
2019-04-25T20:01:36.104Z,6.70
2019-04-25T20:04:11.205Z,4.57
2019-04-25T20:06:56.442Z,6.00
2019-04-25T20:10:01.333Z,5.03
2019-04-25T20:12:31.501Z,4.37
2019-04-25T20:14:58.168Z,10.80
2019-04-25T20:17:24.833Z,6.53
2019-04-25T20:19:51.867Z,6.13
2019-04-25T20:22:18.666Z,14.03
2019-04-25T20:24:46.297Z,6.03
2019-04-25T20:27:13.243Z,6.30
2019-04-25T20:29:39.925Z,6.83
2019-04-25T20:32:07.220Z,7.67
2019-04-25T20:34:34.304Z,10.07
2019-04-25T20:37:01.044Z,7.87
2019-04-25T20:39:29.047Z,5.20
2019-04-25T20:41:56.084Z,10.50
2019-04-25T20:44:22.741Z,12.00
2019-04-25T20:46:50.386Z,4.90
2019-04-25T20:49:17.312Z,8.07
2019-04-25T20:51:47.024Z,11.43
2019-04-25T20:54:13.865Z,10.80
2019-04-25T20:56:40.504Z,11.90
2019-04-25T20:59:07.368Z,5.63
2019-04-25T21:01:34.040Z,7.30
2019-04-25T21:04:12.526Z,9.30
2019-04-25T21:06:32.685Z,8.40
2019-04-25T21:09:06.903Z,8.80
2019-04-25T21:11:33.533Z,5.97
2019-04-25T21:14:19.089Z,8.80
2019-04-25T21:17:08.189Z,5.33
2019-04-25T21:19:40.989Z,5.30
2019-04-25T21:22:07.628Z,6.43
2019-04-25T21:24:34.349Z,3.27
2019-04-25T21:27:01.297Z,4.00
2019-04-25T21:29:28.285Z,7.70
2019-04-25T21:31:55.263Z,7.43
2019-04-25T21:34:26.709Z,6.43
2019-04-25T21:36:51.248Z,8.27
2019-04-25T21:39:34.469Z,4.20
2019-04-25T21:42:23.683Z,7.30
2019-04-25T21:44:50.694Z,6.20
2019-04-25T21:47:17.319Z,10.27
2019-04-25T21:49:44.357Z,5.90
2019-04-25T21:52:11.000Z,5.97
2019-04-25T21:54:38.006Z,7.43
2019-04-25T21:57:05.200Z,6.13
2019-04-25T21:59:31.802Z,6.40
2019-04-25T22:01:58.396Z,4.80
2019-04-25T22:04:25.105Z,6.80
2019-04-25T22:06:54.217Z,7.30
2019-04-25T22:09:23.332Z,9.17
2019-04-25T22:11:50.439Z,7.07
2019-04-25T22:14:17.604Z,5.13
2019-04-25T22:16:44.580Z,9.20
2019-04-25T22:19:12.094Z,6.40
2019-04-25T22:21:39.218Z,6.90
2019-04-25T22:24:11.142Z,7.50
2019-04-25T22:26:34.800Z,7.00
2019-04-25T22:29:03.261Z,7.00
2019-04-25T22:31:54.986Z,9.03
2019-04-25T22:34:51.669Z,6.90
2019-04-25T22:37:10.944Z,5.20
2019-04-25T22:39:37.991Z,9.77
2019-04-25T22:42:04.945Z,4.70
2019-04-25T22:44:32.886Z,5.83
2019-04-25T22:47:00.769Z,8.33
2019-04-25T22:49:29.326Z,7.70
2019-04-25T22:51:55.972Z,6.30
2019-04-25T22:54:23.527Z,13.23
2019-04-25T22:56:50.387Z,6.90
2019-04-25T22:59:17.417Z,4.80
2019-04-25T23:01:51.716Z,6.40
2019-04-25T23:04:30.034Z,5.60
2019-04-25T23:06:59.122Z,10.13
2019-04-25T23:09:25.862Z,5.00
2019-04-25T23:11:52.765Z,6.23
2019-04-25T23:14:19.832Z,5.97
2019-04-25T23:16:46.476Z,7.37
2019-04-25T23:19:13.425Z,6.90
2019-04-25T23:21:40.440Z,8.30
2019-04-25T23:24:07.841Z,7.00
2019-04-25T23:26:43.223Z,9.67
2019-04-25T23:29:10.251Z,6.27
2019-04-25T23:31:37.880Z,7.50
2019-04-25T23:34:06.109Z,5.90
2019-04-25T23:36:33.628Z,9.57
2019-04-25T23:39:00.323Z,9.20
2019-04-25T23:41:27.253Z,13.60
2019-04-25T23:43:53.968Z,7.97
2019-04-25T23:46:20.982Z,6.97
2019-04-25T23:48:47.674Z,6.40
2019-04-25T23:51:15.072Z,14.07
2019-04-25T23:53:42.488Z,14.23
2019-04-25T23:56:09.297Z,7.87
2019-04-25T23:58:40.276Z,9.00
